sensor_id;sensor_type;location;lat;lon;timestamp;pressure;altitude;pressure_sealevel;temperature;humidity
58919;BME280;44704;50.122;19.932;2022-10-22T00:00:18;98274.54;;;8.34;83.81
58919;BME280;44704;50.122;19.932;2022-10-22T00:03:04;98283.02;;;8.35;83.88
58919;BME280;44704;50.122;19.932;2022-10-22T00:05:30;98288.89;;;8.36;83.89
58919;BME280;44704;50.122;19.932;2022-10-22T00:07:56;98290.73;;;8.36;83.89
58919;BME280;44704;50.122;19.932;2022-10-22T00:10:22;98287.63;;;8.38;83.91
58919;BME280;44704;50.122;19.932;2022-10-22T00:12:49;98286.84;;;8.39;83.88
58919;BME280;44704;50.122;19.932;2022-10-22T00:15:15;98285.36;;;8.40;84.01
58919;BME280;44704;50.122;19.932;2022-10-22T00:17:41;98284.91;;;8.40;84.06
58919;BME280;44704;50.122;19.932;2022-10-22T00:20:07;98282.53;;;8.38;83.95
58919;BME280;44704;50.122;19.932;2022-10-22T00:22:33;98275.96;;;8.35;84.09
58919;BME280;44704;50.122;19.932;2022-10-22T00:25:00;98271.33;;;8.34;84.26
58919;BME280;44704;50.122;19.932;2022-10-22T00:27:26;98269.28;;;8.33;84.44
58919;BME280;44704;50.122;19.932;2022-10-22T00:29:52;98267.42;;;8.32;84.42
58919;BME280;44704;50.122;19.932;2022-10-22T00:32:18;98260.45;;;8.33;84.66
58919;BME280;44704;50.122;19.932;2022-10-22T00:34:47;98264.33;;;8.32;84.46
58919;BME280;44704;50.122;19.932;2022-10-22T00:37:13;98262.37;;;8.32;84.61
58919;BME280;44704;50.122;19.932;2022-10-22T00:39:39;98262.05;;;8.32;84.61
58919;BME280;44704;50.122;19.932;2022-10-22T00:42:05;98259.20;;;8.31;84.60
58919;BME280;44704;50.122;19.932;2022-10-22T00:47:43;98264.40;;;8.35;84.59
58919;BME280;44704;50.122;19.932;2022-10-22T00:50:15;98275.66;;;8.36;84.77
58919;BME280;44704;50.122;19.932;2022-10-22T00:52:41;98268.55;;;8.36;84.50
58919;BME280;44704;50.122;19.932;2022-10-22T00:55:12;98266.95;;;8.38;84.73
58919;BME280;44704;50.122;19.932;2022-10-22T00:57:39;98265.89;;;8.39;84.52
58919;BME280;44704;50.122;19.932;2022-10-22T01:00:06;98267.76;;;8.40;84.58
58919;BME280;44704;50.122;19.932;2022-10-22T01:02:33;98266.98;;;8.39;84.41
58919;BME280;44704;50.122;19.932;2022-10-22T01:04:59;98262.92;;;8.37;84.43
58919;BME280;44704;50.122;19.932;2022-10-22T01:07:25;98269.78;;;8.35;84.35
58919;BME280;44704;50.122;19.932;2022-10-22T01:10:58;98272.34;;;8.33;84.33
58919;BME280;44704;50.122;19.932;2022-10-22T01:13:29;98267.83;;;8.33;84.39
58919;BME280;44704;50.122;19.932;2022-10-22T01:16:27;98256.36;;;8.32;84.26
58919;BME280;44704;50.122;19.932;2022-10-22T01:21:45;98244.03;;;8.30;84.29
58919;BME280;44704;50.122;19.932;2022-10-22T01:24:32;98250.67;;;8.28;84.35
58919;BME280;44704;50.122;19.932;2022-10-22T01:29:36;98244.75;;;8.26;84.14
58919;BME280;44704;50.122;19.932;2022-10-22T01:32:19;98247.06;;;8.22;84.09
58919;BME280;44704;50.122;19.932;2022-10-22T01:34:51;98250.20;;;8.20;84.05
58919;BME280;44704;50.122;19.932;2022-10-22T01:37:20;98248.00;;;8.18;84.28
58919;BME280;44704;50.122;19.932;2022-10-22T01:39:47;98251.36;;;8.16;84.29
58919;BME280;44704;50.122;19.932;2022-10-22T01:42:14;98250.36;;;8.15;84.38
58919;BME280;44704;50.122;19.932;2022-10-22T01:44:41;98250.67;;;8.13;84.04
58919;BME280;44704;50.122;19.932;2022-10-22T01:47:29;98249.29;;;8.11;84.06
58919;BME280;44704;50.122;19.932;2022-10-22T02:01:21;98251.34;;;7.95;84.09
58919;BME280;44704;50.122;19.932;2022-10-22T02:03:55;98246.75;;;7.92;84.18
58919;BME280;44704;50.122;19.932;2022-10-22T02:06:26;98242.70;;;7.88;84.12
58919;BME280;44704;50.122;19.932;2022-10-22T02:08:53;98235.95;;;7.85;83.96
58919;BME280;44704;50.122;19.932;2022-10-22T02:11:21;98230.89;;;7.81;84.10
58919;BME280;44704;50.122;19.932;2022-10-22T02:13:51;98223.98;;;7.76;84.18
58919;BME280;44704;50.122;19.932;2022-10-22T02:16:23;98227.84;;;7.72;84.23
58919;BME280;44704;50.122;19.932;2022-10-22T02:18:53;98234.90;;;7.69;84.24
58919;BME280;44704;50.122;19.932;2022-10-22T02:21:21;98234.66;;;7.66;84.16
58919;BME280;44704;50.122;19.932;2022-10-22T02:23:50;98236.76;;;7.61;84.14
58919;BME280;44704;50.122;19.932;2022-10-22T02:26:30;98231.40;;;7.57;84.23
58919;BME280;44704;50.122;19.932;2022-10-22T02:29:29;98225.02;;;7.55;84.60
58919;BME280;44704;50.122;19.932;2022-10-22T02:32:00;98230.10;;;7.53;84.47
58919;BME280;44704;50.122;19.932;2022-10-22T02:34:30;98236.35;;;7.50;84.64
58919;BME280;44704;50.122;19.932;2022-10-22T02:36:59;98235.80;;;7.47;84.51
58919;BME280;44704;50.122;19.932;2022-10-22T02:39:27;98241.09;;;7.44;84.95
58919;BME280;44704;50.122;19.932;2022-10-22T02:41:54;98246.29;;;7.42;84.78
58919;BME280;44704;50.122;19.932;2022-10-22T02:44:23;98244.52;;;7.40;84.81
58919;BME280;44704;50.122;19.932;2022-10-22T02:46:50;98241.85;;;7.38;85.21
58919;BME280;44704;50.122;19.932;2022-10-22T02:49:16;98237.76;;;7.35;84.79
58919;BME280;44704;50.122;19.932;2022-10-22T02:51:42;98242.16;;;7.33;85.27
58919;BME280;44704;50.122;19.932;2022-10-22T02:54:08;98245.06;;;7.31;84.92
58919;BME280;44704;50.122;19.932;2022-10-22T02:56:34;98241.78;;;7.22;84.41
58919;BME280;44704;50.122;19.932;2022-10-22T02:59:01;98240.63;;;7.13;84.58
58919;BME280;44704;50.122;19.932;2022-10-22T03:01:27;98233.83;;;7.08;84.65
58919;BME280;44704;50.122;19.932;2022-10-22T03:03:53;98231.33;;;7.04;84.81
58919;BME280;44704;50.122;19.932;2022-10-22T03:06:19;98235.05;;;7.00;84.87
58919;BME280;44704;50.122;19.932;2022-10-22T03:08:45;98235.73;;;6.95;84.99
58919;BME280;44704;50.122;19.932;2022-10-22T03:11:12;98227.47;;;6.90;85.12
58919;BME280;44704;50.122;19.932;2022-10-22T03:13:38;98223.96;;;6.87;85.28
58919;BME280;44704;50.122;19.932;2022-10-22T03:16:04;98223.67;;;6.84;85.37
58919;BME280;44704;50.122;19.932;2022-10-22T03:18:30;98231.31;;;6.82;85.66
58919;BME280;44704;50.122;19.932;2022-10-22T03:21:18;98237.58;;;6.80;85.56
58919;BME280;44704;50.122;19.932;2022-10-22T03:23:46;98242.55;;;6.77;85.97
58919;BME280;44704;50.122;19.932;2022-10-22T03:26:15;98240.54;;;6.76;85.86
58919;BME280;44704;50.122;19.932;2022-10-22T03:28:41;98237.23;;;6.76;86.33
58919;BME280;44704;50.122;19.932;2022-10-22T03:31:10;98232.91;;;6.73;86.12
58919;BME280;44704;50.122;19.932;2022-10-22T03:33:36;98221.67;;;6.71;86.14
58919;BME280;44704;50.122;19.932;2022-10-22T03:36:02;98223.02;;;6.68;86.26
58919;BME280;44704;50.122;19.932;2022-10-22T03:38:29;98234.91;;;6.67;86.76
58919;BME280;44704;50.122;19.932;2022-10-22T03:40:58;98236.90;;;6.66;86.68
58919;BME280;44704;50.122;19.932;2022-10-22T03:43:24;98239.13;;;6.60;86.01
58919;BME280;44704;50.122;19.932;2022-10-22T03:45:50;98246.79;;;6.48;85.89
58919;BME280;44704;50.122;19.932;2022-10-22T03:48:16;98248.48;;;6.38;85.68
58919;BME280;44704;50.122;19.932;2022-10-22T03:50:42;98249.33;;;6.33;86.05
58919;BME280;44704;50.122;19.932;2022-10-22T03:53:20;98247.55;;;6.30;86.59
58919;BME280;44704;50.122;19.932;2022-10-22T03:55:46;98245.32;;;6.30;86.84
58919;BME280;44704;50.122;19.932;2022-10-22T03:58:12;98244.64;;;6.31;87.29
58919;BME280;44704;50.122;19.932;2022-10-22T04:00:38;98242.14;;;6.31;87.37
58919;BME280;44704;50.122;19.932;2022-10-22T04:03:05;98234.50;;;6.30;87.53
58919;BME280;44704;50.122;19.932;2022-10-22T04:05:32;98225.63;;;6.30;87.59
58919;BME280;44704;50.122;19.932;2022-10-22T04:07:59;98214.55;;;6.28;87.57
58919;BME280;44704;50.122;19.932;2022-10-22T04:10:25;98221.54;;;6.29;87.89
58919;BME280;44704;50.122;19.932;2022-10-22T04:12:51;98224.41;;;6.27;87.70
58919;BME280;44704;50.122;19.932;2022-10-22T04:15:17;98220.75;;;6.26;87.66
58919;BME280;44704;50.122;19.932;2022-10-22T04:17:43;98215.20;;;6.25;87.76
58919;BME280;44704;50.122;19.932;2022-10-22T04:20:10;98211.38;;;6.22;87.65
58919;BME280;44704;50.122;19.932;2022-10-22T04:22:36;98211.37;;;6.21;87.60
58919;BME280;44704;50.122;19.932;2022-10-22T04:25:03;98211.96;;;6.20;87.90
58919;BME280;44704;50.122;19.932;2022-10-22T04:27:32;98217.45;;;6.19;87.61
58919;BME280;44704;50.122;19.932;2022-10-22T04:29:59;98217.52;;;6.16;87.84
58919;BME280;44704;50.122;19.932;2022-10-22T04:32:26;98219.11;;;6.15;87.97
58919;BME280;44704;50.122;19.932;2022-10-22T04:34:53;98220.70;;;6.15;87.95
58919;BME280;44704;50.122;19.932;2022-10-22T04:37:19;98222.98;;;6.16;88.23
58919;BME280;44704;50.122;19.932;2022-10-22T04:39:45;98222.44;;;6.16;88.07
58919;BME280;44704;50.122;19.932;2022-10-22T04:42:11;98218.95;;;6.15;88.14
58919;BME280;44704;50.122;19.932;2022-10-22T04:44:37;98218.91;;;6.14;88.03
58919;BME280;44704;50.122;19.932;2022-10-22T04:47:03;98207.02;;;6.14;88.36
58919;BME280;44704;50.122;19.932;2022-10-22T04:49:30;98205.23;;;6.14;88.14
58919;BME280;44704;50.122;19.932;2022-10-22T04:51:56;98201.00;;;6.13;88.26
58919;BME280;44704;50.122;19.932;2022-10-22T04:54:22;98202.55;;;6.13;88.32
58919;BME280;44704;50.122;19.932;2022-10-22T04:56:48;98210.79;;;6.13;88.49
58919;BME280;44704;50.122;19.932;2022-10-22T04:59:14;98222.55;;;6.13;88.63
58919;BME280;44704;50.122;19.932;2022-10-22T05:01:43;98230.11;;;6.14;88.44
58919;BME280;44704;50.122;19.932;2022-10-22T05:04:11;98226.10;;;6.14;88.80
58919;BME280;44704;50.122;19.932;2022-10-22T05:06:41;98228.11;;;6.15;88.67
58919;BME280;44704;50.122;19.932;2022-10-22T05:09:11;98235.27;;;6.14;88.57
58919;BME280;44704;50.122;19.932;2022-10-22T05:11:40;98232.47;;;6.15;88.65
58919;BME280;44704;50.122;19.932;2022-10-22T05:14:07;98225.18;;;6.17;89.04
58919;BME280;44704;50.122;19.932;2022-10-22T05:16:34;98222.82;;;6.19;89.04
58919;BME280;44704;50.122;19.932;2022-10-22T05:19:01;98225.58;;;6.21;88.83
58919;BME280;44704;50.122;19.932;2022-10-22T05:21:27;98218.70;;;6.24;88.99
58919;BME280;44704;50.122;19.932;2022-10-22T05:23:54;98215.89;;;6.26;88.81
58919;BME280;44704;50.122;19.932;2022-10-22T05:26:21;98211.55;;;6.27;88.75
58919;BME280;44704;50.122;19.932;2022-10-22T05:28:48;98207.60;;;6.29;88.62
58919;BME280;44704;50.122;19.932;2022-10-22T05:31:16;98208.91;;;6.30;88.50
58919;BME280;44704;50.122;19.932;2022-10-22T05:33:42;98198.47;;;6.30;88.32
58919;BME280;44704;50.122;19.932;2022-10-22T05:36:15;98194.27;;;6.28;88.26
58919;BME280;44704;50.122;19.932;2022-10-22T05:38:41;98198.58;;;6.27;88.14
58919;BME280;44704;50.122;19.932;2022-10-22T05:41:12;98206.23;;;6.28;88.26
58919;BME280;44704;50.122;19.932;2022-10-22T05:43:39;98210.11;;;6.30;88.48
58919;BME280;44704;50.122;19.932;2022-10-22T05:46:08;98213.70;;;6.33;88.45
58919;BME280;44704;50.122;19.932;2022-10-22T05:48:34;98222.94;;;6.34;88.44
58919;BME280;44704;50.122;19.932;2022-10-22T05:51:04;98234.02;;;6.35;88.40
58919;BME280;44704;50.122;19.932;2022-10-22T05:53:31;98241.59;;;6.37;88.50
58919;BME280;44704;50.122;19.932;2022-10-22T05:56:06;98245.39;;;6.38;88.40
58919;BME280;44704;50.122;19.932;2022-10-22T05:58:33;98243.80;;;6.39;88.24
58919;BME280;44704;50.122;19.932;2022-10-22T06:01:01;98246.27;;;6.39;88.07
58919;BME280;44704;50.122;19.932;2022-10-22T06:03:27;98241.73;;;6.39;87.70
58919;BME280;44704;50.122;19.932;2022-10-22T06:05:54;98236.02;;;6.39;88.02
58919;BME280;44704;50.122;19.932;2022-10-22T06:08:20;98235.70;;;6.39;87.99
58919;BME280;44704;50.122;19.932;2022-10-22T06:10:46;98232.34;;;6.41;88.16
58919;BME280;44704;50.122;19.932;2022-10-22T06:13:12;98232.58;;;6.43;88.04
58919;BME280;44704;50.122;19.932;2022-10-22T06:15:38;98233.27;;;6.44;88.17
58919;BME280;44704;50.122;19.932;2022-10-22T06:18:04;98238.02;;;6.48;88.19
58919;BME280;44704;50.122;19.932;2022-10-22T06:20:33;98238.29;;;6.51;88.29
58919;BME280;44704;50.122;19.932;2022-10-22T06:22:59;98246.46;;;6.55;88.33
58919;BME280;44704;50.122;19.932;2022-10-22T06:25:25;98253.90;;;6.57;87.73
58919;BME280;44704;50.122;19.932;2022-10-22T06:27:51;98257.77;;;6.57;88.02
58919;BME280;44704;50.122;19.932;2022-10-22T06:30:18;98261.69;;;6.73;90.53
58919;BME280;44704;50.122;19.932;2022-10-22T06:32:44;98254.70;;;6.97;89.46
58919;BME280;44704;50.122;19.932;2022-10-22T06:35:10;98246.65;;;7.06;88.28
58919;BME280;44704;50.122;19.932;2022-10-22T06:37:36;98235.67;;;7.10;87.91
58919;BME280;44704;50.122;19.932;2022-10-22T06:40:02;98234.88;;;7.15;87.62
58919;BME280;44704;50.122;19.932;2022-10-22T06:42:28;98242.99;;;7.18;87.58
58919;BME280;44704;50.122;19.932;2022-10-22T06:44:55;98260.13;;;7.23;87.46
58919;BME280;44704;50.122;19.932;2022-10-22T06:47:21;98275.11;;;7.30;87.60
58919;BME280;44704;50.122;19.932;2022-10-22T06:49:47;98282.48;;;7.38;87.65
58919;BME280;44704;50.122;19.932;2022-10-22T06:52:14;98296.15;;;7.45;87.61
58919;BME280;44704;50.122;19.932;2022-10-22T06:54:40;98295.37;;;7.50;87.17
58919;BME280;44704;50.122;19.932;2022-10-22T06:57:06;98290.96;;;7.53;87.08
58919;BME280;44704;50.122;19.932;2022-10-22T06:59:32;98292.36;;;7.57;87.37
58919;BME280;44704;50.122;19.932;2022-10-22T07:01:58;98298.23;;;7.60;87.28
58919;BME280;44704;50.122;19.932;2022-10-22T07:04:24;98301.52;;;7.63;87.26
58919;BME280;44704;50.122;19.932;2022-10-22T07:06:53;98302.65;;;7.69;87.52
58919;BME280;44704;50.122;19.932;2022-10-22T07:09:19;98307.64;;;7.76;87.40
58919;BME280;44704;50.122;19.932;2022-10-22T07:11:46;98308.80;;;7.86;87.45
58919;BME280;44704;50.122;19.932;2022-10-22T07:14:12;98299.95;;;7.98;87.58
58919;BME280;44704;50.122;19.932;2022-10-22T07:16:39;98293.25;;;8.10;87.70
58919;BME280;44704;50.122;19.932;2022-10-22T07:19:11;98297.34;;;8.20;87.20
58919;BME280;44704;50.122;19.932;2022-10-22T07:21:37;98297.49;;;8.28;87.14
58919;BME280;44704;50.122;19.932;2022-10-22T07:24:04;98296.36;;;8.39;87.08
58919;BME280;44704;50.122;19.932;2022-10-22T07:26:30;98284.70;;;8.51;87.10
58919;BME280;44704;50.122;19.932;2022-10-22T07:28:58;98277.50;;;8.61;86.67
58919;BME280;44704;50.122;19.932;2022-10-22T07:31:25;98279.37;;;8.69;86.42
58919;BME280;44704;50.122;19.932;2022-10-22T07:33:52;98294.66;;;8.75;86.02
58919;BME280;44704;50.122;19.932;2022-10-22T07:36:18;98292.06;;;8.83;85.55
58919;BME280;44704;50.122;19.932;2022-10-22T07:38:46;98290.07;;;8.91;85.99
58919;BME280;44704;50.122;19.932;2022-10-22T07:41:14;98291.58;;;9.01;85.85
58919;BME280;44704;50.122;19.932;2022-10-22T07:43:41;98298.25;;;9.11;85.76
58919;BME280;44704;50.122;19.932;2022-10-22T07:46:07;98312.02;;;9.20;85.51
58919;BME280;44704;50.122;19.932;2022-10-22T07:48:35;98312.70;;;9.26;85.06
58919;BME280;44704;50.122;19.932;2022-10-22T07:51:02;98307.86;;;9.32;84.70
58919;BME280;44704;50.122;19.932;2022-10-22T07:53:29;98302.70;;;9.37;84.62
58919;BME280;44704;50.122;19.932;2022-10-22T07:55:55;98298.21;;;9.41;84.20
58919;BME280;44704;50.122;19.932;2022-10-22T07:58:21;98282.95;;;9.47;84.21
58919;BME280;44704;50.122;19.932;2022-10-22T08:00:48;98274.94;;;9.55;84.12
58919;BME280;44704;50.122;19.932;2022-10-22T08:03:16;98277.73;;;9.62;83.78
58919;BME280;44704;50.122;19.932;2022-10-22T08:05:43;98273.88;;;9.70;83.23
58919;BME280;44704;50.122;19.932;2022-10-22T08:08:11;98258.30;;;9.79;82.79
58919;BME280;44704;50.122;19.932;2022-10-22T08:10:37;98256.05;;;9.90;82.80
58919;BME280;44704;50.122;19.932;2022-10-22T08:13:05;98251.55;;;10.00;82.16
58919;BME280;44704;50.122;19.932;2022-10-22T08:15:31;98250.13;;;10.09;81.69
58919;BME280;44704;50.122;19.932;2022-10-22T08:17:57;98250.14;;;10.17;81.45
58919;BME280;44704;50.122;19.932;2022-10-22T08:20:23;98252.30;;;10.26;81.18
58919;BME280;44704;50.122;19.932;2022-10-22T08:22:49;98253.39;;;10.35;81.00
58919;BME280;44704;50.122;19.932;2022-10-22T08:25:16;98252.75;;;10.43;80.73
58919;BME280;44704;50.122;19.932;2022-10-22T08:27:43;98255.54;;;10.51;80.47
58919;BME280;44704;50.122;19.932;2022-10-22T08:30:10;98259.61;;;10.55;79.77
58919;BME280;44704;50.122;19.932;2022-10-22T08:32:36;98272.30;;;10.61;79.23
58919;BME280;44704;50.122;19.932;2022-10-22T08:35:03;98292.60;;;10.68;79.46
58919;BME280;44704;50.122;19.932;2022-10-22T08:37:29;98290.24;;;10.75;79.17
58919;BME280;44704;50.122;19.932;2022-10-22T08:39:55;98291.45;;;10.79;78.88
58919;BME280;44704;50.122;19.932;2022-10-22T08:45:12;98297.85;;;10.92;78.45
58919;BME280;44704;50.122;19.932;2022-10-22T08:48:05;98312.92;;;10.95;78.06
58919;BME280;44704;50.122;19.932;2022-10-22T08:50:39;98310.89;;;10.97;77.88
58919;BME280;44704;50.122;19.932;2022-10-22T08:53:12;98301.27;;;10.96;77.23
58919;BME280;44704;50.122;19.932;2022-10-22T08:55:40;98304.03;;;10.95;77.23
58919;BME280;44704;50.122;19.932;2022-10-22T08:58:31;98317.99;;;10.95;77.53
58919;BME280;44704;50.122;19.932;2022-10-22T09:01:02;98322.15;;;10.96;77.22
58919;BME280;44704;50.122;19.932;2022-10-22T09:03:37;98321.42;;;10.95;76.84
58919;BME280;44704;50.122;19.932;2022-10-22T09:06:12;98316.35;;;10.93;76.82
58919;BME280;44704;50.122;19.932;2022-10-22T09:08:41;98314.77;;;10.94;77.15
58919;BME280;44704;50.122;19.932;2022-10-22T09:11:17;98313.86;;;10.95;76.90
58919;BME280;44704;50.122;19.932;2022-10-22T09:13:45;98315.69;;;10.97;77.01
58919;BME280;44704;50.122;19.932;2022-10-22T09:24:26;98277.09;;;11.25;77.63
58919;BME280;44704;50.122;19.932;2022-10-22T09:26:55;98263.54;;;11.37;77.56
58919;BME280;44704;50.122;19.932;2022-10-22T09:29:33;98257.65;;;11.48;77.29
58919;BME280;44704;50.122;19.932;2022-10-22T09:31:59;98257.45;;;11.59;76.99
58919;BME280;44704;50.122;19.932;2022-10-22T09:34:27;98264.64;;;11.68;76.98
58919;BME280;44704;50.122;19.932;2022-10-22T09:37:03;98275.29;;;11.75;76.82
58919;BME280;44704;50.122;19.932;2022-10-22T09:39:42;98281.41;;;11.82;76.82
58919;BME280;44704;50.122;19.932;2022-10-22T09:42:10;98291.21;;;11.85;76.34
58919;BME280;44704;50.122;19.932;2022-10-22T09:44:37;98298.09;;;11.85;76.26
58919;BME280;44704;50.122;19.932;2022-10-22T09:47:11;98305.70;;;11.83;76.01
58919;BME280;44704;50.122;19.932;2022-10-22T09:52:54;98307.27;;;11.75;75.90
58919;BME280;44704;50.122;19.932;2022-10-22T09:55:23;98299.23;;;11.74;75.93
58919;BME280;44704;50.122;19.932;2022-10-22T09:57:58;98293.69;;;11.75;75.78
58919;BME280;44704;50.122;19.932;2022-10-22T10:00:25;98293.53;;;11.77;76.12
58919;BME280;44704;50.122;19.932;2022-10-22T10:02:57;98295.68;;;11.79;76.31
58919;BME280;44704;50.122;19.932;2022-10-22T10:05:31;98295.90;;;11.84;76.02
58919;BME280;44704;50.122;19.932;2022-10-22T10:07:58;98291.33;;;11.85;76.20
58919;BME280;44704;50.122;19.932;2022-10-22T10:16:02;98301.45;;;11.82;76.33
58919;BME280;44704;50.122;19.932;2022-10-22T10:18:50;98303.61;;;11.80;76.28
58919;BME280;44704;50.122;19.932;2022-10-22T10:26:42;98305.77;;;11.72;76.58
58919;BME280;44704;50.122;19.932;2022-10-22T10:34:38;98303.73;;;11.71;76.80
58919;BME280;44704;50.122;19.932;2022-10-22T10:37:21;98307.20;;;11.72;76.77
58919;BME280;44704;50.122;19.932;2022-10-22T10:45:25;98308.31;;;11.75;76.56
58919;BME280;44704;50.122;19.932;2022-10-22T10:58:44;98309.27;;;11.78;77.20
58919;BME280;44704;50.122;19.932;2022-10-22T11:01:29;98309.02;;;11.81;77.58
58919;BME280;44704;50.122;19.932;2022-10-22T11:06:41;98300.98;;;11.81;77.60
58919;BME280;44704;50.122;19.932;2022-10-22T11:09:26;98299.30;;;11.81;77.82
58919;BME280;44704;50.122;19.932;2022-10-22T11:12:02;98293.89;;;11.79;78.05
58919;BME280;44704;50.122;19.932;2022-10-22T11:14:52;98293.26;;;11.76;77.76
58919;BME280;44704;50.122;19.932;2022-10-22T11:17:22;98290.38;;;11.72;77.91
58919;BME280;44704;50.122;19.932;2022-10-22T11:22:49;98292.36;;;11.64;78.50
58919;BME280;44704;50.122;19.932;2022-10-22T11:25:19;98293.42;;;11.62;78.91
58919;BME280;44704;50.122;19.932;2022-10-22T11:28:00;98287.56;;;11.59;79.16
58919;BME280;44704;50.122;19.932;2022-10-22T11:30:32;98285.63;;;11.56;79.51
58919;BME280;44704;50.122;19.932;2022-10-22T11:33:05;98283.46;;;11.58;79.73
58919;BME280;44704;50.122;19.932;2022-10-22T11:35:34;98278.55;;;11.57;79.79
58919;BME280;44704;50.122;19.932;2022-10-22T11:38:04;98276.70;;;11.54;80.11
58919;BME280;44704;50.122;19.932;2022-10-22T11:40:35;98278.15;;;11.52;80.50
58919;BME280;44704;50.122;19.932;2022-10-22T11:43:08;98272.15;;;11.51;80.69
58919;BME280;44704;50.122;19.932;2022-10-22T11:45:37;98273.92;;;11.49;80.98
58919;BME280;44704;50.122;19.932;2022-10-22T11:55:46;98264.40;;;11.46;81.96
58919;BME280;44704;50.122;19.932;2022-10-22T11:58:42;98260.95;;;11.45;82.02
58919;BME280;44704;50.122;19.932;2022-10-22T12:06:24;98243.86;;;11.49;83.04
58919;BME280;44704;50.122;19.932;2022-10-22T12:12:09;98240.48;;;11.53;83.61
58919;BME280;44704;50.122;19.932;2022-10-22T12:14:24;98245.34;;;11.54;83.76
58919;BME280;44704;50.122;19.932;2022-10-22T12:17:13;98244.19;;;11.53;83.81
58919;BME280;44704;50.122;19.932;2022-10-22T12:19:42;98241.19;;;11.53;83.91
58919;BME280;44704;50.122;19.932;2022-10-22T12:22:22;98245.09;;;11.52;84.07
58919;BME280;44704;50.122;19.932;2022-10-22T12:24:51;98240.02;;;11.52;84.15
58919;BME280;44704;50.122;19.932;2022-10-22T12:29:58;98244.44;;;11.51;84.55
58919;BME280;44704;50.122;19.932;2022-10-22T12:32:37;98244.63;;;11.48;84.70
58919;BME280;44704;50.122;19.932;2022-10-22T12:35:13;98250.27;;;11.46;84.66
58919;BME280;44704;50.122;19.932;2022-10-22T12:37:40;98252.02;;;11.45;84.72
58919;BME280;44704;50.122;19.932;2022-10-22T12:40:28;98255.70;;;11.43;84.91
58919;BME280;44704;50.122;19.932;2022-10-22T12:42:57;98259.07;;;11.43;85.30
58919;BME280;44704;50.122;19.932;2022-10-22T12:45:29;98252.24;;;11.42;85.16
58919;BME280;44704;50.122;19.932;2022-10-22T12:47:58;98249.34;;;11.41;85.53
58919;BME280;44704;50.122;19.932;2022-10-22T12:50:30;98240.49;;;11.39;85.93
58919;BME280;44704;50.122;19.932;2022-10-22T12:52:58;98242.11;;;11.37;86.19
58919;BME280;44704;50.122;19.932;2022-10-22T12:55:25;98243.40;;;11.36;86.08
58919;BME280;44704;50.122;19.932;2022-10-22T12:57:51;98236.03;;;11.36;86.32
58919;BME280;44704;50.122;19.932;2022-10-22T13:02:46;98239.45;;;11.34;86.46
58919;BME280;44704;50.122;19.932;2022-10-22T13:05:20;98236.82;;;11.33;86.40
58919;BME280;44704;50.122;19.932;2022-10-22T13:07:53;98237.89;;;11.32;86.58
58919;BME280;44704;50.122;19.932;2022-10-22T13:10:24;98242.35;;;11.30;86.61
58919;BME280;44704;50.122;19.932;2022-10-22T13:12:54;98242.17;;;11.29;86.67
58919;BME280;44704;50.122;19.932;2022-10-22T13:18:21;98240.33;;;11.30;86.86
58919;BME280;44704;50.122;19.932;2022-10-22T13:20:59;98243.35;;;11.28;86.73
58919;BME280;44704;50.122;19.932;2022-10-22T13:23:32;98244.54;;;11.26;86.99
58919;BME280;44704;50.122;19.932;2022-10-22T13:26:02;98244.91;;;11.25;87.05
58919;BME280;44704;50.122;19.932;2022-10-22T13:28:30;98245.11;;;11.24;87.29
58919;BME280;44704;50.122;19.932;2022-10-22T13:30:59;98243.08;;;11.22;87.12
58919;BME280;44704;50.122;19.932;2022-10-22T13:33:29;98242.15;;;11.18;87.41
58919;BME280;44704;50.122;19.932;2022-10-22T13:35:58;98239.41;;;11.16;87.34
58919;BME280;44704;50.122;19.932;2022-10-22T13:38:26;98238.78;;;11.14;87.65
58919;BME280;44704;50.122;19.932;2022-10-22T13:40:53;98239.39;;;11.11;87.84
58919;BME280;44704;50.122;19.932;2022-10-22T13:43:21;98238.13;;;11.09;87.93
58919;BME280;44704;50.122;19.932;2022-10-22T13:45:52;98234.12;;;11.07;88.01
58919;BME280;44704;50.122;19.932;2022-10-22T13:48:20;98224.21;;;11.04;88.54
58919;BME280;44704;50.122;19.932;2022-10-22T13:50:51;98222.00;;;11.00;88.30
58919;BME280;44704;50.122;19.932;2022-10-22T13:53:25;98220.36;;;11.00;88.74
58919;BME280;44704;50.122;19.932;2022-10-22T13:55:52;98219.13;;;10.98;88.69
58919;BME280;44704;50.122;19.932;2022-10-22T13:58:21;98214.10;;;10.97;88.94
58919;BME280;44704;50.122;19.932;2022-10-22T14:00:54;98211.07;;;10.98;89.06
58919;BME280;44704;50.122;19.932;2022-10-22T14:03:29;98211.45;;;10.97;89.07
58919;BME280;44704;50.122;19.932;2022-10-22T14:05:56;98205.77;;;10.97;89.18
58919;BME280;44704;50.122;19.932;2022-10-22T14:08:23;98201.19;;;10.97;89.28
58919;BME280;44704;50.122;19.932;2022-10-22T14:10:51;98197.13;;;10.98;89.46
58919;BME280;44704;50.122;19.932;2022-10-22T14:13:18;98195.77;;;10.98;89.75
58919;BME280;44704;50.122;19.932;2022-10-22T14:15:47;98201.98;;;10.98;89.74
58919;BME280;44704;50.122;19.932;2022-10-22T14:18:17;98206.86;;;10.97;89.86
58919;BME280;44704;50.122;19.932;2022-10-22T14:20:50;98211.33;;;10.97;89.63
58919;BME280;44704;50.122;19.932;2022-10-22T14:23:21;98213.89;;;10.97;89.96
58919;BME280;44704;50.122;19.932;2022-10-22T14:25:48;98214.95;;;10.96;89.91
58919;BME280;44704;50.122;19.932;2022-10-22T14:28:17;98219.26;;;10.95;90.05
58919;BME280;44704;50.122;19.932;2022-10-22T14:30:44;98221.64;;;10.93;90.64
58919;BME280;44704;50.122;19.932;2022-10-22T14:33:20;98220.64;;;10.92;90.13
58919;BME280;44704;50.122;19.932;2022-10-22T14:35:48;98227.68;;;10.90;90.42
58919;BME280;44704;50.122;19.932;2022-10-22T14:38:14;98230.22;;;10.87;90.31
58919;BME280;44704;50.122;19.932;2022-10-22T14:40:41;98229.81;;;10.85;90.60
58919;BME280;44704;50.122;19.932;2022-10-22T14:43:25;98230.61;;;10.84;90.42